TimeEDT,TemperatureF,Dew PointF,Humidity,Sea Level PressureIn,VisibilityMPH,Wind Direction,Wind SpeedMPH,Gust SpeedMPH,PrecipitationIn,Events,Conditions,WindDirDegrees,DateUTC
12:15 AM,44.6,40.5,85,29.74,10.0,NW,4.6,-,N/A,,Scattered Clouds,320,2012-09-22 04:15:00
12:34 AM,44.6,41.5,89,29.73,10.0,NW,4.6,-,N/A,,Mostly Cloudy,310,2012-09-22 04:34:00
12:55 AM,44.6,41.9,90,29.72,10.0,NW,3.5,-,N/A,,Mostly Cloudy,310,2012-09-22 04:55:00
1:14 AM,43.9,41.9,93,29.72,10.0,NW,4.6,-,N/A,,Mostly Cloudy,310,2012-09-22 05:14:00
1:34 AM,43.0,41.5,95,29.72,10.0,NW,3.5,-,N/A,,Mostly Cloudy,320,2012-09-22 05:34:00
1:55 AM,43.7,41.9,93,29.72,10.0,NW,5.8,-,N/A,,Scattered Clouds,310,2012-09-22 05:55:00
2:15 AM,45.0,41.7,88,29.71,10.0,NW,5.8,-,N/A,,Scattered Clouds,320,2012-09-22 06:15:00
2:34 AM,45.1,41.9,88,29.71,10.0,NW,4.6,-,N/A,,Clear,310,2012-09-22 06:34:00
2:55 AM,44.8,42.8,93,29.70,10.0,NW,3.5,-,N/A,,Scattered Clouds,320,2012-09-22 06:55:00
3:15 AM,45.5,42.1,88,29.70,10.0,NW,4.6,-,N/A,,Mostly Cloudy,310,2012-09-22 07:15:00
3:34 AM,46.2,41.9,85,29.69,10.0,NW,4.6,-,N/A,,Overcast,320,2012-09-22 07:34:00
3:55 AM,46.2,41.7,84,29.70,10.0,NW,4.6,-,N/A,,Overcast,310,2012-09-22 07:55:00
4:15 AM,46.0,41.0,83,29.69,10.0,NW,8.1,-,N/A,,Overcast,320,2012-09-22 08:15:00
4:34 AM,45.7,41.2,84,29.70,10.0,NW,6.9,-,N/A,,Overcast,310,2012-09-22 08:34:00
4:55 AM,45.0,41.0,86,29.69,10.0,NW,6.9,-,N/A,,Overcast,320,2012-09-22 08:55:00
5:15 AM,45.5,41.0,84,29.69,10.0,NW,6.9,-,N/A,,Overcast,320,2012-09-22 09:15:00
5:34 AM,45.5,41.0,84,29.69,10.0,NNW,8.1,-,N/A,,Mostly Cloudy,330,2012-09-22 09:34:00
5:55 AM,45.1,40.6,84,29.69,10.0,NW,10.4,16.1,N/A,,Scattered Clouds,320,2012-09-22 09:55:00
6:14 AM,45.3,41.0,85,29.70,10.0,NW,9.2,-,N/A,,Clear,320,2012-09-22 10:14:00
6:35 AM,45.5,41.2,85,29.70,10.0,NNW,5.8,-,N/A,,Clear,330,2012-09-22 10:35:00
6:55 AM,45.5,41.0,84,29.70,10.0,NW,9.2,-,N/A,,Clear,310,2012-09-22 10:55:00
7:14 AM,44.6,40.3,85,29.70,10.0,NW,11.5,-,N/A,,Scattered Clouds,310,2012-09-22 11:14:00
7:35 AM,45.1,40.3,83,29.70,10.0,NW,6.9,-,N/A,,Mostly Cloudy,310,2012-09-22 11:35:00
7:54 AM,45.7,40.8,83,29.70,10.0,WNW,6.9,-,N/A,,Scattered Clouds,300,2012-09-22 11:54:00
8:14 AM,45.9,40.8,83,29.70,10.0,WNW,9.2,-,N/A,,Clear,290,2012-09-22 12:14:00
8:35 AM,46.0,41.2,83,29.72,10.0,WNW,9.2,-,N/A,,Clear,300,2012-09-22 12:35:00
8:54 AM,45.9,40.6,82,29.72,10.0,WNW,10.4,18.4,N/A,,Clear,300,2012-09-22 12:54:00
9:14 AM,46.4,40.6,80,29.72,10.0,WNW,10.4,-,N/A,,Clear,290,2012-09-22 13:14:00
9:35 AM,47.1,40.3,77,29.72,10.0,WNW,12.7,20.7,N/A,,Clear,300,2012-09-22 13:35:00
9:55 AM,47.8,40.1,75,29.72,10.0,NW,10.4,19.6,N/A,,Scattered Clouds,310,2012-09-22 13:55:00
10:14 AM,49.1,41.0,74,29.72,10.0,NW,9.2,19.6,N/A,,Scattered Clouds,310,2012-09-22 14:14:00
10:54 AM,48.6,41.0,75,29.74,10.0,NW,11.5,19.6,N/A,,Overcast,310,2012-09-22 14:54:00
11:15 AM,49.8,41.0,72,29.74,10.0,NNW,10.4,18.4,N/A,,Overcast,330,2012-09-22 15:15:00
11:35 AM,47.8,42.8,83,29.74,7.0,NW,11.5,16.1,N/A,Rain,Rain,310,2012-09-22 15:35:00
11:54 AM,47.8,45.0,90,29.75,10.0,NNW,12.7,19.6,0.01,Rain,Light Rain,340,2012-09-22 15:54:00
12:15 PM,46.6,43.2,88,29.76,7.0,NNW,9.2,-,0.01,Rain,Light Rain,340,2012-09-22 16:15:00
12:34 PM,47.1,44.1,89,29.77,5.0,NNW,9.2,-,0.02,Rain,Light Rain,330,2012-09-22 16:34:00
12:55 PM,50.0,45.7,85,29.77,10.0,NNW,10.4,-,0.02,,Mostly Cloudy,340,2012-09-22 16:55:00
1:15 PM,49.5,41.9,75,29.79,10.0,North,19.6,26.5,N/A,,Mostly Cloudy,350,2012-09-22 17:15:00
1:34 PM,49.1,41.5,75,29.79,7.0,North,18.4,28.8,0.01,Rain,Rain,350,2012-09-22 17:34:00
1:55 PM,48.9,42.8,79,29.80,10.0,NNW,17.3,23.0,0.01,,Overcast,340,2012-09-22 17:55:00
2:15 PM,50.7,43.7,77,29.81,10.0,NNW,12.7,21.9,N/A,,Mostly Cloudy,330,2012-09-22 18:15:00
2:34 PM,52.2,40.5,64,29.81,10.0,NNW,10.4,23.0,N/A,,Scattered Clouds,330,2012-09-22 18:34:00
3:15 PM,52.2,34.5,51,29.82,10.0,NW,17.3,27.6,N/A,,Clear,310,2012-09-22 19:15:00
3:34 PM,53.2,35.6,51,29.83,10.0,NW,16.1,27.6,N/A,,Scattered Clouds,320,2012-09-22 19:34:00
3:54 PM,51.6,38.1,60,29.84,10.0,NNW,19.6,27.6,N/A,,Mostly Cloudy,330,2012-09-22 19:54:00
4:15 PM,52.7,37.4,56,29.85,10.0,NW,15.0,25.3,N/A,,Scattered Clouds,310,2012-09-22 20:15:00
4:34 PM,50.5,36.1,58,29.86,10.0,NW,13.8,24.2,N/A,,Scattered Clouds,310,2012-09-22 20:34:00
4:55 PM,52.0,33.1,49,29.86,10.0,NW,17.3,29.9,N/A,,Scattered Clouds,320,2012-09-22 20:55:00
5:15 PM,51.8,32.0,47,29.87,10.0,NW,17.3,27.6,N/A,,Scattered Clouds,310,2012-09-22 21:15:00
5:34 PM,50.4,36.0,58,29.88,10.0,North,16.1,27.6,N/A,,Scattered Clouds,350,2012-09-22 21:34:00
5:55 PM,48.4,37.0,65,29.90,10.0,NNW,13.8,23.0,N/A,,Scattered Clouds,330,2012-09-22 21:55:00
6:14 PM,49.3,37.8,65,29.91,10.0,NW,9.2,23.0,N/A,,Scattered Clouds,320,2012-09-22 22:14:00
6:35 PM,48.7,38.1,67,29.92,10.0,WNW,11.5,19.6,N/A,,Mostly Cloudy,300,2012-09-22 22:35:00
6:55 PM,47.5,35.4,63,29.92,10.0,WNW,15.0,21.9,N/A,,Scattered Clouds,290,2012-09-22 22:55:00
7:14 PM,46.9,36.1,66,29.92,10.0,WNW,16.1,23.0,N/A,,Clear,290,2012-09-22 23:14:00
7:35 PM,46.6,36.9,69,29.93,10.0,WNW,12.7,23.0,N/A,,Clear,290,2012-09-22 23:35:00
7:55 PM,46.4,36.9,69,29.94,10.0,WNW,15.0,21.9,N/A,,Clear,300,2012-09-22 23:55:00
8:14 PM,46.0,36.3,69,29.94,10.0,WNW,12.7,20.7,N/A,,Scattered Clouds,290,2012-09-23 00:14:00
8:35 PM,45.7,36.5,70,29.95,10.0,WNW,13.8,21.9,N/A,,Scattered Clouds,290,2012-09-23 00:35:00
8:55 PM,45.0,36.3,72,29.95,10.0,WNW,13.8,21.9,N/A,,Clear,290,2012-09-23 00:55:00
9:14 PM,44.8,37.4,75,29.95,10.0,WNW,12.7,18.4,N/A,,Mostly Cloudy,290,2012-09-23 01:14:00
9:55 PM,44.8,38.3,78,29.96,10.0,WNW,15.0,20.7,N/A,,Scattered Clouds,290,2012-09-23 01:55:00
10:14 PM,44.6,38.5,79,29.96,10.0,WNW,11.5,21.9,N/A,,Scattered Clouds,300,2012-09-23 02:14:00
10:35 PM,44.6,37.8,77,29.96,10.0,WNW,13.8,20.7,N/A,,Mostly Cloudy,300,2012-09-23 02:35:00
10:55 PM,44.2,38.1,79,29.96,10.0,WNW,15.0,23.0,N/A,,Mostly Cloudy,300,2012-09-23 02:55:00
11:14 PM,43.9,37.8,79,29.97,10.0,WNW,12.7,25.3,N/A,,Mostly Cloudy,300,2012-09-23 03:14:00
11:35 PM,43.7,37.8,80,29.97,10.0,WNW,12.7,20.7,N/A,,Scattered Clouds,290,2012-09-23 03:35:00
11:54 PM,43.5,37.4,79,29.97,10.0,WNW,12.7,18.4,N/A,,Scattered Clouds,290,2012-09-23 03:54:00